Time,TemperatureF,DewpointF,PressureIn,WindDirection,WindDirectionDegrees,WindSpeedMPH,WindSpeedGustMPH,Humidity,HourlyPrecipIn,Conditions,Clouds,dailyrainin,SolarRadiationWatts/m^2,SoftwareType,DateUTC
2013-09-06 00:05:00,60.8,59.4,30.00,SSW,203,1.0,2.0,95,0.35,,,0.04,0,Wunderground v.1.15,2013-09-06 07:05:00,
2013-09-06 00:10:00,60.8,59.4,30.00,SSW,203,1.0,2.0,95,0.22,,,0.07,0,Wunderground v.1.15,2013-09-06 07:10:00,
2013-09-06 00:20:00,60.7,59.3,30.00,SSW,203,1.0,1.0,95,0.24,,,0.16,0,Wunderground v.1.15,2013-09-06 07:20:00,
2013-09-06 00:30:00,60.7,59.3,30.01,SSW,203,0.0,0.0,95,0.09,,,0.19,0,Wunderground v.1.15,2013-09-06 07:30:00,
2013-09-06 00:40:00,60.6,59.2,30.01,SSW,203,0.0,0.0,95,0.12,,,0.21,0,Wunderground v.1.15,2013-09-06 07:40:00,
2013-09-06 00:50:00,60.5,59.1,30.01,SSW,203,0.0,0.0,95,0.27,,,0.24,0,Wunderground v.1.15,2013-09-06 07:50:00,
2013-09-06 01:05:00,60.5,59.1,30.01,SSW,203,0.0,0.0,95,0.19,,,0.28,0,Wunderground v.1.15,2013-09-06 08:05:00,
2013-09-06 01:20:00,60.4,59.3,30.00,SSW,203,0.0,0.0,96,0.33,,,0.40,0,Wunderground v.1.15,2013-09-06 08:20:00,
2013-09-06 01:30:00,60.4,59.3,30.00,SSW,203,0.0,0.0,96,0.31,,,0.46,0,Wunderground v.1.15,2013-09-06 08:30:00,
2013-09-06 01:40:00,60.5,59.4,30.00,SSW,203,0.0,0.0,96,0.15,,,0.49,0,Wunderground v.1.15,2013-09-06 08:40:00,
2013-09-06 01:50:00,60.4,59.3,30.00,SSW,203,0.0,0.0,96,0.26,,,0.52,0,Wunderground v.1.15,2013-09-06 08:50:00,
2013-09-06 02:05:00,60.4,59.3,29.99,SSW,203,0.0,0.0,96,0.24,,,0.56,0,Wunderground v.1.15,2013-09-06 09:05:00,
2013-09-06 02:10:00,60.5,59.4,29.99,SSW,203,0.0,0.0,96,0.28,,,0.58,0,Wunderground v.1.15,2013-09-06 09:10:00,
2013-09-06 02:20:00,60.4,59.3,29.98,SSW,203,0.0,0.0,96,0.16,,,0.60,0,Wunderground v.1.15,2013-09-06 09:20:00,
2013-09-06 02:30:00,60.4,59.3,29.98,SSW,203,0.0,0.0,96,0.09,,,0.61,0,Wunderground v.1.15,2013-09-06 09:30:00,
2013-09-06 02:40:00,60.4,59.3,29.97,SSW,203,0.0,0.0,96,0.08,,,0.63,0,Wunderground v.1.15,2013-09-06 09:40:00,
2013-09-06 02:50:00,60.4,59.3,29.97,SSW,203,0.0,1.0,96,0.08,,,0.65,0,Wunderground v.1.15,2013-09-06 09:50:00,
2013-09-06 03:05:00,60.4,59.3,29.97,SSW,203,0.0,0.0,96,0.10,,,0.67,0,Wunderground v.1.15,2013-09-06 10:05:00,
2013-09-06 03:10:00,60.3,59.2,29.97,SSW,203,0.0,0.0,96,0.07,,,0.68,0,Wunderground v.1.15,2013-09-06 10:10:00,
2013-09-06 03:20:00,60.4,59.3,29.97,SSW,203,0.0,0.0,96,0.00,,,0.68,0,Wunderground v.1.15,2013-09-06 10:20:00,
2013-09-06 03:30:00,60.4,59.3,29.97,SSW,203,0.0,0.0,96,0.00,,,0.69,0,Wunderground v.1.15,2013-09-06 10:30:00,
2013-09-06 03:40:00,60.4,59.3,29.97,SSW,203,0.0,1.0,96,0.00,,,0.69,0,Wunderground v.1.15,2013-09-06 10:40:00,
2013-09-06 03:50:00,60.4,59.3,29.98,SSW,203,0.0,0.0,96,0.00,,,0.70,0,Wunderground v.1.15,2013-09-06 10:50:00,
2013-09-06 04:05:00,60.5,59.6,29.97,SSW,203,0.0,0.0,97,0.14,,,0.71,0,Wunderground v.1.15,2013-09-06 11:05:00,
2013-09-06 04:10:00,60.4,59.5,29.98,SSW,203,0.0,0.0,97,0.17,,,0.74,0,Wunderground v.1.15,2013-09-06 11:10:00,
2013-09-06 04:20:00,60.4,59.5,29.98,SSW,203,0.0,0.0,97,0.13,,,0.76,0,Wunderground v.1.15,2013-09-06 11:20:00,
2013-09-06 04:30:00,60.3,59.2,29.98,SSW,203,0.0,0.0,96,0.18,,,0.78,0,Wunderground v.1.15,2013-09-06 11:30:00,
2013-09-06 04:40:00,60.3,59.2,29.98,SSW,203,0.0,0.0,96,0.19,,,0.80,0,Wunderground v.1.15,2013-09-06 11:40:00,
2013-09-06 04:50:00,60.2,59.3,29.98,SSW,203,0.0,0.0,97,0.10,,,0.83,0,Wunderground v.1.15,2013-09-06 11:50:00,
2013-09-06 05:05:00,60.2,59.3,29.98,SSW,203,0.0,0.0,97,0.07,,,0.84,0,Wunderground v.1.15,2013-09-06 12:05:00,
2013-09-06 05:10:00,60.2,59.3,29.98,SSW,203,0.0,0.0,97,0.07,,,0.85,0,Wunderground v.1.15,2013-09-06 12:10:00,
2013-09-06 05:20:00,60.1,59.2,29.98,SSW,203,0.0,0.0,97,0.07,,,0.87,0,Wunderground v.1.15,2013-09-06 12:20:00,
2013-09-06 05:30:00,60.1,59.2,29.98,SSW,203,0.0,0.0,97,0.06,,,0.87,0,Wunderground v.1.15,2013-09-06 12:30:00,
2013-09-06 05:40:00,60.1,59.2,29.98,SSW,203,1.0,1.0,97,0.05,,,0.88,0,Wunderground v.1.15,2013-09-06 12:40:00,
2013-09-06 05:50:00,60.2,59.3,29.98,SSW,203,0.0,0.0,97,0.05,,,0.88,0,Wunderground v.1.15,2013-09-06 12:50:00,
2013-09-06 06:10:00,60.3,59.4,29.99,SSW,203,0.0,0.0,97,0.07,,,0.90,0,Wunderground v.1.15,2013-09-06 13:10:00,
2013-09-06 06:20:00,60.2,59.3,29.99,SSW,203,0.0,0.0,97,0.06,,,0.91,0,Wunderground v.1.15,2013-09-06 13:20:00,
2013-09-06 06:30:00,60.1,59.2,30.00,SSW,203,0.0,0.0,97,0.05,,,0.92,0,Wunderground v.1.15,2013-09-06 13:30:00,
2013-09-06 06:40:00,60.2,59.3,30.00,SSW,203,0.0,0.0,97,0.05,,,0.92,0,Wunderground v.1.15,2013-09-06 13:40:00,
2013-09-06 06:50:00,60.2,59.3,30.00,SSW,203,0.0,0.0,97,0.00,,,0.92,0,Wunderground v.1.15,2013-09-06 13:50:00,
2013-09-06 07:10:00,60.3,59.4,30.01,SSW,203,0.0,0.0,97,0.08,,,0.95,14,Wunderground v.1.15,2013-09-06 14:10:00,
2013-09-06 07:20:00,60.4,59.5,30.01,SSW,203,0.0,0.0,97,0.09,,,0.97,18,Wunderground v.1.15,2013-09-06 14:20:00,
2013-09-06 07:30:00,60.4,59.5,30.01,SSW,203,0.0,0.0,97,0.05,,,0.97,18,Wunderground v.1.15,2013-09-06 14:30:00,
2013-09-06 07:40:00,60.4,59.5,30.01,SSW,203,1.0,1.0,97,0.00,,,0.98,28,Wunderground v.1.15,2013-09-06 14:40:00,
2013-09-06 07:50:00,60.6,59.7,30.01,SSW,202,1.0,1.0,97,0.00,,,0.98,40,Wunderground v.1.15,2013-09-06 14:50:00,
2013-09-06 08:10:00,60.7,59.8,30.01,SE,139,2.0,2.0,97,0.00,,,0.98,86,Wunderground v.1.15,2013-09-06 15:10:00,
2013-09-06 08:15:00,60.8,59.9,30.01,South,173,3.0,3.0,97,0.00,,,0.98,90,Wunderground v.1.15,2013-09-06 15:15:00,
2013-09-06 08:25:00,61.0,59.9,30.02,SSE,148,2.0,2.0,96,0.00,,,0.98,100,Wunderground v.1.15,2013-09-06 15:25:00,
2013-09-06 08:35:00,61.4,60.2,30.02,SSE,148,1.0,1.0,96,0.00,,,0.98,121,Wunderground v.1.15,2013-09-06 15:35:00,
2013-09-06 08:50:00,61.8,60.6,30.03,SSE,148,0.0,0.0,96,0.00,,,0.98,114,Wunderground v.1.15,2013-09-06 15:50:00,
2013-09-06 09:05:00,62.2,60.8,30.03,SSE,148,0.0,0.0,95,0.00,,,0.98,125,Wunderground v.1.15,2013-09-06 16:05:00,
2013-09-06 09:10:00,62.3,60.8,30.04,SSE,148,0.0,0.0,95,0.00,,,0.98,128,Wunderground v.1.15,2013-09-06 16:10:00,
2013-09-06 09:15:00,62.3,60.8,30.03,SSE,148,0.0,0.0,95,0.00,,,0.98,135,Wunderground v.1.15,2013-09-06 16:15:00,
2013-09-06 09:30:00,62.7,60.6,30.03,SSE,148,0.0,0.0,93,0.00,,,0.98,202,Wunderground v.1.15,2013-09-06 16:30:00,
2013-09-06 09:35:00,62.9,60.8,30.03,SSE,148,0.0,0.0,93,0.00,,,0.98,221,Wunderground v.1.15,2013-09-06 16:35:00,
2013-09-06 09:40:00,63.2,61.4,30.03,SSE,148,0.0,1.0,94,0.00,,,0.98,216,Wunderground v.1.15,2013-09-06 16:40:00,
2013-09-06 09:50:00,63.7,61.0,30.04,SSW,206,1.0,1.0,91,0.00,,,0.98,202,Wunderground v.1.15,2013-09-06 16:50:00,
2013-09-06 10:05:00,63.9,60.6,30.04,SSW,196,2.0,2.0,89,0.00,,,0.98,128,Wunderground v.1.15,2013-09-06 17:05:00,
2013-09-06 10:10:00,64.0,61.3,30.05,SSW,199,1.0,2.0,91,0.00,,,0.98,90,Wunderground v.1.15,2013-09-06 17:10:00,
2013-09-06 10:20:00,64.1,61.4,30.04,SSW,199,0.0,0.0,91,0.00,,,0.98,93,Wunderground v.1.15,2013-09-06 17:20:00,
2013-09-06 10:30:00,64.1,61.7,30.04,SSW,199,0.0,0.0,92,0.00,,,0.98,151,Wunderground v.1.15,2013-09-06 17:30:00,
2013-09-06 10:40:00,64.0,61.3,30.04,SSW,199,0.0,1.0,91,0.00,,,0.98,155,Wunderground v.1.15,2013-09-06 17:40:00,
2013-09-06 10:50:00,64.1,61.7,30.04,SSW,198,0.0,0.0,92,0.00,,,0.98,146,Wunderground v.1.15,2013-09-06 17:50:00,
2013-09-06 10:55:00,64.0,61.3,30.04,SE,139,1.0,1.0,91,0.00,,,0.98,134,Wunderground v.1.15,2013-09-06 17:55:00,
2013-09-06 11:05:00,63.8,60.8,30.05,ESE,115,1.0,2.0,90,0.00,,,0.98,84,Wunderground v.1.15,2013-09-06 18:05:00,
2013-09-06 11:10:00,63.6,60.6,30.05,SSW,200,1.0,4.0,90,0.00,,,0.98,104,Wunderground v.1.15,2013-09-06 18:10:00,
2013-09-06 11:20:00,63.8,61.4,30.06,SSW,197,1.0,1.0,92,0.00,,,0.99,139,Wunderground v.1.15,2013-09-06 18:20:00,
2013-09-06 11:30:00,63.8,61.4,30.06,South,182,1.0,5.0,92,0.00,,,0.99,167,Wunderground v.1.15,2013-09-06 18:30:00,
2013-09-06 11:40:00,63.8,61.4,30.06,ESE,117,2.0,2.0,92,0.06,,,1.00,188,Wunderground v.1.15,2013-09-06 18:40:00,
2013-09-06 11:50:00,63.6,61.5,30.06,SSE,159,3.0,3.0,93,0.00,,,1.00,308,Wunderground v.1.15,2013-09-06 18:50:00,
2013-09-06 11:55:00,63.9,61.8,30.06,SE,142,2.0,3.0,93,0.00,,,1.00,304,Wunderground v.1.15,2013-09-06 18:55:00,
2013-09-06 12:10:00,64.2,60.9,30.06,South,173,3.0,3.0,89,0.00,,,1.00,281,Wunderground v.1.15,2013-09-06 19:10:00,
2013-09-06 12:15:00,64.3,61.0,30.06,SSE,164,4.0,8.0,89,0.00,,,1.00,302,Wunderground v.1.15,2013-09-06 19:15:00,
2013-09-06 12:20:00,64.4,61.4,30.06,SSE,159,4.0,4.0,90,0.00,,,1.00,388,Wunderground v.1.15,2013-09-06 19:20:00,
2013-09-06 12:25:00,64.7,61.1,30.06,SSE,161,5.0,7.0,88,0.00,,,1.00,497,Wunderground v.1.15,2013-09-06 19:25:00,
2013-09-06 12:30:00,65.2,61.2,30.06,South,178,4.0,5.0,87,0.00,,,1.00,466,Wunderground v.1.15,2013-09-06 19:30:00,
2013-09-06 12:40:00,65.6,61.3,30.07,SE,140,3.0,3.0,86,0.00,,,1.00,394,Wunderground v.1.15,2013-09-06 19:40:00,
2013-09-06 12:50:00,66.0,61.4,30.06,SSE,165,3.0,3.0,85,0.00,,,1.00,392,Wunderground v.1.15,2013-09-06 19:50:00,
2013-09-06 13:10:00,67.2,61.9,30.06,ESE,106,2.0,4.0,83,0.00,,,1.00,490,Wunderground v.1.15,2013-09-06 20:10:00,
2013-09-06 13:20:00,67.6,61.9,30.06,SE,142,3.0,5.0,82,0.00,,,1.00,348,Wunderground v.1.15,2013-09-06 20:20:00,
2013-09-06 13:25:00,67.4,61.7,30.06,SE,146,4.0,5.0,82,0.00,,,1.00,531,Wunderground v.1.15,2013-09-06 20:25:00,
2013-09-06 13:40:00,68.7,62.3,30.05,SE,140,4.0,5.0,80,0.00,,,1.00,596,Wunderground v.1.15,2013-09-06 20:40:00,
2013-09-06 13:50:00,68.6,61.8,30.06,SW,231,5.0,7.0,79,0.00,,,1.00,686,Wunderground v.1.15,2013-09-06 20:50:00,
2013-09-06 14:05:00,68.1,62.0,30.06,SSW,192,5.0,5.0,81,0.00,,,1.00,397,Wunderground v.1.15,2013-09-06 21:05:00,
2013-09-06 14:15:00,69.0,62.6,30.07,ESE,103,3.0,4.0,80,0.00,,,1.00,475,Wunderground v.1.15,2013-09-06 21:15:00,
2013-09-06 14:25:00,68.5,62.1,30.07,SSW,192,4.0,5.0,80,0.00,,,1.00,281,Wunderground v.1.15,2013-09-06 21:25:00,
2013-09-06 14:40:00,68.4,62.3,30.07,South,185,4.0,4.0,81,0.00,,,1.00,316,Wunderground v.1.15,2013-09-06 21:40:00,
2013-09-06 14:50:00,68.9,62.1,30.07,ESE,111,4.0,4.0,79,0.00,,,1.00,330,Wunderground v.1.15,2013-09-06 21:50:00,
2013-09-06 14:55:00,69.1,62.7,30.07,ESE,123,4.0,4.0,80,0.00,,,1.00,330,Wunderground v.1.15,2013-09-06 21:55:00,
2013-09-06 15:05:00,69.9,62.4,30.07,SSE,156,3.0,3.0,77,0.00,,,1.00,309,Wunderground v.1.15,2013-09-06 22:05:00,
2013-09-06 15:10:00,69.8,62.3,30.07,SSE,160,4.0,5.0,77,0.00,,,1.00,292,Wunderground v.1.15,2013-09-06 22:10:00,
2013-09-06 15:20:00,70.8,62.1,30.07,West,267,3.0,3.0,74,0.00,,,1.00,673,Wunderground v.1.15,2013-09-06 22:20:00,
2013-09-06 15:25:00,71.8,61.9,30.07,SSW,199,3.0,6.0,71,0.00,,,1.00,735,Wunderground v.1.15,2013-09-06 22:25:00,
2013-09-06 15:35:00,71.9,62.8,30.08,SE,143,3.0,3.0,73,0.00,,,1.00,485,Wunderground v.1.15,2013-09-06 22:35:00,
2013-09-06 15:45:00,72.0,62.1,30.07,South,170,3.0,3.0,71,0.00,,,1.00,698,Wunderground v.1.15,2013-09-06 22:45:00,
2013-09-06 16:10:00,73.0,62.2,30.07,South,169,2.0,3.0,69,0.00,,,1.00,253,Wunderground v.1.15,2013-09-06 23:10:00,
2013-09-06 16:20:00,71.6,61.3,30.07,NW,311,2.0,2.0,70,0.00,,,1.00,111,Wunderground v.1.15,2013-09-06 23:20:00,
2013-09-06 16:25:00,71.2,61.7,30.07,South,186,2.0,2.0,72,0.00,,,1.00,155,Wunderground v.1.15,2013-09-06 23:25:00,
2013-09-06 16:35:00,71.8,61.9,30.08,South,171,1.0,2.0,71,0.00,,,1.00,160,Wunderground v.1.15,2013-09-06 23:35:00,
2013-09-06 16:40:00,71.6,62.1,30.08,South,182,2.0,2.0,72,0.00,,,1.00,436,Wunderground v.1.15,2013-09-06 23:40:00,
2013-09-06 16:50:00,72.6,62.7,30.08,WSW,257,2.0,4.0,71,0.00,,,1.00,434,Wunderground v.1.15,2013-09-06 23:50:00,
2013-09-06 17:05:00,72.0,61.7,30.08,ESE,108,1.0,1.0,70,0.00,,,1.00,104,Wunderground v.1.15,2013-09-07 00:05:00,
2013-09-06 17:10:00,71.5,62.4,30.08,SSE,159,2.0,2.0,73,0.00,,,1.00,163,Wunderground v.1.15,2013-09-07 00:10:00,
2013-09-06 17:20:00,70.7,62.4,30.08,South,188,3.0,3.0,75,0.00,,,1.00,86,Wunderground v.1.15,2013-09-07 00:20:00,
2013-09-06 17:25:00,70.3,62.0,30.08,South,182,3.0,4.0,75,0.00,,,1.00,102,Wunderground v.1.15,2013-09-07 00:25:00,
2013-09-06 17:35:00,70.0,62.1,30.08,South,170,3.0,3.0,76,0.00,,,1.00,125,Wunderground v.1.15,2013-09-07 00:35:00,
2013-09-06 17:40:00,70.0,62.5,30.08,South,177,3.0,3.0,77,0.00,,,1.00,100,Wunderground v.1.15,2013-09-07 00:40:00,
2013-09-06 17:50:00,70.0,62.1,30.08,South,184,3.0,3.0,76,0.00,,,1.00,123,Wunderground v.1.15,2013-09-07 00:50:00,
2013-09-06 18:10:00,69.5,62.3,30.09,East,97,2.0,2.0,78,0.00,,,1.00,44,Wunderground v.1.15,2013-09-07 01:10:00,
2013-09-06 18:20:00,69.0,61.5,30.09,South,183,1.0,1.0,77,0.00,,,1.00,39,Wunderground v.1.15,2013-09-07 01:20:00,
2013-09-06 18:30:00,68.7,61.9,30.09,South,174,2.0,3.0,79,0.00,,,1.00,39,Wunderground v.1.15,2013-09-07 01:30:00,
2013-09-06 18:40:00,68.3,61.5,30.10,South,175,3.0,4.0,79,0.00,,,1.00,33,Wunderground v.1.15,2013-09-07 01:40:00,
2013-09-06 18:50:00,67.6,61.2,30.09,South,187,3.0,3.0,80,0.00,,,1.00,19,Wunderground v.1.15,2013-09-07 01:50:00,
2013-09-06 19:05:00,66.2,60.9,30.10,SSW,192,3.0,3.0,83,0.00,,,1.00,12,Wunderground v.1.15,2013-09-07 02:05:00,
2013-09-06 19:10:00,66.0,61.0,30.10,South,182,2.0,3.0,84,0.00,,,1.00,19,Wunderground v.1.15,2013-09-07 02:10:00,
2013-09-06 19:20:00,65.9,60.6,30.10,SSE,167,2.0,4.0,83,0.00,,,1.00,11,Wunderground v.1.15,2013-09-07 02:20:00,
2013-09-06 19:30:00,65.8,60.5,30.10,ESE,121,1.0,1.0,83,0.00,,,1.00,11,Wunderground v.1.15,2013-09-07 02:30:00,
2013-09-06 19:40:00,65.9,60.6,30.10,South,182,1.0,1.0,83,0.00,,,1.00,0,Wunderground v.1.15,2013-09-07 02:40:00,
2013-09-06 19:50:00,65.9,60.6,30.10,SSE,167,1.0,3.0,83,0.00,,,1.00,0,Wunderground v.1.15,2013-09-07 02:50:00,
2013-09-06 20:10:00,65.7,60.7,30.11,SE,132,2.0,2.0,84,0.00,,,1.00,0,Wunderground v.1.15,2013-09-07 03:10:00,
2013-09-06 20:15:00,65.5,60.5,30.11,SSE,165,2.0,4.0,84,0.00,,,1.00,0,Wunderground v.1.15,2013-09-07 03:15:00,
2013-09-06 20:30:00,65.3,60.7,30.11,SSE,152,3.0,3.0,85,0.00,,,1.00,0,Wunderground v.1.15,2013-09-07 03:30:00,
2013-09-06 20:40:00,65.4,60.8,30.11,South,185,3.0,5.0,85,0.00,,,1.00,0,Wunderground v.1.15,2013-09-07 03:40:00,
2013-09-06 20:50:00,65.6,60.6,30.12,SSE,159,3.0,3.0,84,0.00,,,1.00,0,Wunderground v.1.15,2013-09-07 03:50:00,
2013-09-06 21:10:00,65.7,60.4,30.12,South,174,3.0,3.0,83,0.00,,,1.00,0,Wunderground v.1.15,2013-09-07 04:10:00,
2013-09-06 21:20:00,65.6,60.3,30.12,South,189,4.0,7.0,83,0.00,,,1.00,0,Wunderground v.1.15,2013-09-07 04:20:00,
2013-09-06 21:30:00,65.6,60.3,30.11,SE,138,3.0,4.0,83,0.00,,,1.00,0,Wunderground v.1.15,2013-09-07 04:30:00,
2013-09-06 21:40:00,65.4,60.1,30.12,SSE,150,3.0,3.0,83,0.00,,,1.00,0,Wunderground v.1.15,2013-09-07 04:40:00,
2013-09-06 21:50:00,65.1,60.1,30.11,SE,137,2.0,2.0,84,0.00,,,1.00,0,Wunderground v.1.15,2013-09-07 04:50:00,
2013-09-06 22:05:00,64.8,59.9,30.12,South,171,0.0,0.0,84,0.00,,,1.00,0,Wunderground v.1.15,2013-09-07 05:05:00,
2013-09-06 22:10:00,64.7,60.1,30.12,SSW,196,0.0,0.0,85,0.00,,,1.00,0,Wunderground v.1.15,2013-09-07 05:10:00,
2013-09-06 22:15:00,64.6,59.7,30.13,SSW,196,1.0,1.0,84,0.00,,,1.00,0,Wunderground v.1.15,2013-09-07 05:15:00,
2013-09-06 22:20:00,64.6,60.0,30.13,SSW,197,0.0,1.0,85,0.00,,,1.00,0,Wunderground v.1.15,2013-09-07 05:20:00,
2013-09-06 22:30:00,64.9,59.9,30.13,South,178,1.0,1.0,84,0.00,,,1.00,0,Wunderground v.1.15,2013-09-07 05:30:00,
2013-09-06 22:40:00,65.1,60.1,30.13,South,180,1.0,1.0,84,0.00,,,1.00,0,Wunderground v.1.15,2013-09-07 05:40:00,
2013-09-06 22:50:00,64.9,59.9,30.13,ESE,123,1.0,1.0,84,0.00,,,1.00,0,Wunderground v.1.15,2013-09-07 05:50:00,
2013-09-06 23:10:00,64.4,59.8,30.13,SSE,159,2.0,2.0,85,0.00,,,1.00,0,Wunderground v.1.15,2013-09-07 06:10:00,
2013-09-06 23:20:00,64.1,59.8,30.13,ESE,111,3.0,3.0,86,0.00,,,1.00,0,Wunderground v.1.15,2013-09-07 06:20:00,
2013-09-06 23:30:00,63.9,59.6,30.13,SSE,155,3.0,4.0,86,0.00,,,1.00,0,Wunderground v.1.15,2013-09-07 06:30:00,
2013-09-06 23:40:00,63.9,59.6,30.13,SSE,156,2.0,2.0,86,0.00,,,1.00,0,Wunderground v.1.15,2013-09-07 06:40:00,
2013-09-06 23:50:00,63.8,59.5,30.13,SSE,156,1.0,2.0,86,0.00,,,1.00,0,Wunderground v.1.15,2013-09-07 06:50:00,